Rechercher aéroport 
image banner adimage banner adimage banner ad
image banner ad

CL91 - Auberry Hydro Service Center

Situé à Auberry, United States

ICAO - CL91, IATA -

Données fournies par Airmate  

Information générale

Coordonnées: N37°3'56" W119°29'3"
Élévation : 2000 feet MSL.
Variation magnétique : 15° East
Voir autres Aéroports à California

Données opérationnelles

Special qualification required
Heure actuelle UTC:
Heure actuelle locale:
Météo à : KFAT - Fresno Yosemite Intl ( 38 km )
METAR: KFAT 020453Z 32009KT 10SM SCT200 33/13 A2995 RMK AO2 WSHFT 0343 SLP139 T03280128 $
TAF: KFAT 012327Z 0200/0224 31006KT P6SM SKC
Voir NOTAMs / SUP AIP / TFR affectant cet aéroport [VIEW]
Fréquences de communication: [VIEW]

Pistes:

Coordonnées de l'aéroport

Adresse: Auberry United States

Vue satellite de CL91